Time,TemperatureF,DewpointF,PressureIn,WindDirection,WindDirectionDegrees,WindSpeedMPH,WindSpeedGustMPH,Humidity,HourlyPrecipIn,Conditions,Clouds,dailyrainin,SoftwareType,DateUTC
2014-01-02 00:00:00,51.5,47.8,30.10,NNE,27,5.0,6.0,87,0.00,,,0.00,VWS V14.01,2014-01-01 23:00:00,
2014-01-02 00:04:00,51.6,47.9,30.10,NNE,27,4.0,5.0,87,0.00,,,0.00,VWS V14.01,2014-01-01 23:04:00,
2014-01-02 00:09:00,51.6,47.9,30.10,NNE,30,5.0,7.0,87,0.00,,,0.00,VWS V14.01,2014-01-01 23:09:00,
2014-01-02 00:10:00,51.6,47.9,30.10,NNE,31,5.0,7.0,87,0.00,,,0.00,VWS V14.01,2014-01-01 23:10:00,
2014-01-02 00:14:00,51.5,47.8,30.10,NNE,31,5.0,6.0,87,0.00,,,0.00,VWS V14.01,2014-01-01 23:14:00,
2014-01-02 00:19:00,51.5,47.8,30.10,NNE,31,6.0,6.0,87,0.00,,,0.00,VWS V14.01,2014-01-01 23:19:00,
2014-01-02 00:20:00,51.6,47.9,30.10,NNE,31,5.0,6.0,87,0.00,,,0.00,VWS V14.01,2014-01-01 23:20:00,
2014-01-02 00:24:00,51.5,47.8,30.10,NNE,31,5.0,6.0,87,0.00,,,0.00,VWS V14.01,2014-01-01 23:24:00,
2014-01-02 00:29:00,51.6,47.9,30.10,NNE,31,4.0,6.0,87,0.00,,,0.00,VWS V14.01,2014-01-01 23:29:00,
2014-01-02 00:30:00,51.7,48.0,30.10,NNE,31,5.0,6.0,87,0.00,,,0.00,VWS V14.01,2014-01-01 23:30:00,
2014-01-02 00:34:00,51.8,48.1,30.10,NNE,31,4.0,6.0,87,0.00,,,0.00,VWS V14.01,2014-01-01 23:34:00,
2014-01-02 00:39:00,51.8,48.1,30.10,NNE,31,4.0,6.0,87,0.00,,,0.00,VWS V14.01,2014-01-01 23:39:00,
2014-01-02 00:40:00,51.7,48.0,30.10,NNE,31,4.0,6.0,87,0.00,,,0.00,VWS V14.01,2014-01-01 23:40:00,
2014-01-02 00:44:00,51.7,48.0,30.09,NNE,31,5.0,5.0,87,0.00,,,0.00,VWS V14.01,2014-01-01 23:44:00,
2014-01-02 00:49:00,51.7,48.0,30.09,NNE,31,4.0,5.0,87,0.00,,,0.00,VWS V14.01,2014-01-01 23:49:00,
2014-01-02 00:50:00,51.7,48.0,30.10,NNE,31,3.0,5.0,87,0.00,,,0.00,VWS V14.01,2014-01-01 23:50:00,
2014-01-02 00:54:00,51.7,48.0,30.09,NNE,31,4.0,5.0,87,0.00,,,0.00,VWS V14.01,2014-01-01 23:54:00,
2014-01-02 00:59:00,51.7,48.0,30.09,NNE,31,4.0,5.0,87,0.00,,,0.00,VWS V14.01,2014-01-01 23:59:00,
2014-01-02 01:00:00,51.7,48.0,30.10,NNE,31,5.0,5.0,87,0.00,,,0.00,VWS V14.01,2014-01-02 00:00:00,
2014-01-02 01:04:00,51.8,48.1,30.10,NNE,31,5.0,5.0,87,0.00,,,0.00,VWS V14.01,2014-01-02 00:04:00,
2014-01-02 01:09:00,51.8,48.1,30.09,NNE,31,4.0,5.0,87,0.00,,,0.00,VWS V14.01,2014-01-02 00:09:00,
2014-01-02 01:10:00,51.8,47.8,30.10,NNE,31,4.0,5.0,86,0.00,,,0.00,VWS V14.01,2014-01-02 00:10:00,
2014-01-02 01:14:00,51.6,47.6,30.10,NNE,31,3.0,4.0,86,0.00,,,0.00,VWS V14.01,2014-01-02 00:14:00,
2014-01-02 01:19:00,51.7,47.7,30.09,NNE,31,4.0,5.0,86,0.00,,,0.00,VWS V14.01,2014-01-02 00:19:00,
2014-01-02 01:20:00,51.7,47.7,30.09,NNE,31,3.0,5.0,86,0.00,,,0.00,VWS V14.01,2014-01-02 00:20:00,
2014-01-02 01:24:00,51.7,47.7,30.09,NNE,31,2.0,4.0,86,0.00,,,0.00,VWS V14.01,2014-01-02 00:24:00,
2014-01-02 01:29:00,51.4,47.4,30.09,NNE,31,2.0,4.0,86,0.00,,,0.00,VWS V14.01,2014-01-02 00:29:00,
2014-01-02 01:30:00,51.4,47.4,30.10,NNE,31,3.0,4.0,86,0.00,,,0.00,VWS V14.01,2014-01-02 00:30:00,
2014-01-02 01:34:00,51.3,47.3,30.09,NNE,31,3.0,4.0,86,0.00,,,0.00,VWS V14.01,2014-01-02 00:34:00,
2014-01-02 01:39:00,51.5,47.5,30.10,NNE,31,3.0,4.0,86,0.00,,,0.00,VWS V14.01,2014-01-02 00:39:00,
2014-01-02 01:40:00,51.5,47.5,30.10,NNE,31,2.0,4.0,86,0.00,,,0.00,VWS V14.01,2014-01-02 00:40:00,
2014-01-02 01:44:00,51.4,47.4,30.09,NNE,31,4.0,4.0,86,0.00,,,0.00,VWS V14.01,2014-01-02 00:44:00,
2014-01-02 01:49:00,51.4,47.4,30.09,NNE,31,3.0,4.0,86,0.00,,,0.00,VWS V14.01,2014-01-02 00:49:00,
2014-01-02 01:50:00,51.6,47.6,30.09,NNE,31,2.0,4.0,86,0.00,,,0.00,VWS V14.01,2014-01-02 00:50:00,
2014-01-02 01:54:00,51.8,47.8,30.09,NNE,31,1.0,3.0,86,0.00,,,0.00,VWS V14.01,2014-01-02 00:54:00,
2014-01-02 01:59:00,52.0,48.0,30.09,NNE,31,1.0,3.0,86,0.00,,,0.00,VWS V14.01,2014-01-02 00:59:00,
2014-01-02 02:00:00,52.1,47.7,30.09,NNE,31,2.0,3.0,85,0.00,,,0.00,VWS V14.01,2014-01-02 01:00:00,
2014-01-02 02:04:00,52.3,47.9,30.09,NNE,31,2.0,3.0,85,0.00,,,0.00,VWS V14.01,2014-01-02 01:04:00,
2014-01-02 02:09:00,52.2,47.5,30.09,NNE,31,2.0,3.0,84,0.00,,,0.00,VWS V14.01,2014-01-02 01:09:00,
2014-01-02 02:10:00,51.8,47.1,30.09,NNE,31,3.0,3.0,84,0.00,,,0.00,VWS V14.01,2014-01-02 01:10:00,
2014-01-02 02:14:00,51.7,47.0,30.09,NNE,31,3.0,3.0,84,0.00,,,0.00,VWS V14.01,2014-01-02 01:14:00,
2014-01-02 02:19:00,51.9,47.2,30.09,NNE,31,3.0,3.0,84,0.00,,,0.00,VWS V14.01,2014-01-02 01:19:00,
2014-01-02 02:20:00,51.6,46.9,30.09,NNE,31,3.0,3.0,84,0.00,,,0.00,VWS V14.01,2014-01-02 01:20:00,
2014-01-02 02:24:00,51.7,47.3,30.10,NNE,31,3.0,4.0,85,0.00,,,0.00,VWS V14.01,2014-01-02 01:24:00,
2014-01-02 02:29:00,52.0,47.3,30.10,NNE,31,4.0,4.0,84,0.00,,,0.00,VWS V14.01,2014-01-02 01:29:00,
2014-01-02 02:30:00,52.0,47.3,30.10,NNE,31,3.0,4.0,84,0.00,,,0.00,VWS V14.01,2014-01-02 01:30:00,
2014-01-02 02:34:00,52.0,47.3,30.10,NNE,31,2.0,4.0,84,0.00,,,0.00,VWS V14.01,2014-01-02 01:34:00,
2014-01-02 02:39:00,51.8,47.1,30.10,NNE,31,3.0,4.0,84,0.00,,,0.00,VWS V14.01,2014-01-02 01:39:00,
2014-01-02 02:40:00,51.9,47.2,30.10,NNE,31,3.0,4.0,84,0.00,,,0.00,VWS V14.01,2014-01-02 01:40:00,
2014-01-02 02:44:00,51.9,47.2,30.10,NNE,31,2.0,3.0,84,0.00,,,0.00,VWS V14.01,2014-01-02 01:44:00,
2014-01-02 02:49:00,52.1,47.4,30.10,NNE,31,2.0,3.0,84,0.00,,,0.00,VWS V14.01,2014-01-02 01:49:00,
2014-01-02 02:50:00,52.2,47.5,30.10,NNE,31,2.0,3.0,84,0.00,,,0.00,VWS V14.01,2014-01-02 01:50:00,
2014-01-02 02:54:00,52.3,47.6,30.09,NNE,31,2.0,3.0,84,0.00,,,0.00,VWS V14.01,2014-01-02 01:54:00,
2014-01-02 02:59:00,52.6,47.6,30.10,NNE,31,1.0,3.0,83,0.00,,,0.00,VWS V14.01,2014-01-02 01:59:00,
2014-01-02 03:00:00,52.6,47.6,30.09,NNE,31,2.0,3.0,83,0.00,,,0.00,VWS V14.01,2014-01-02 02:00:00,
2014-01-02 03:04:00,52.4,47.4,30.09,NNE,31,1.0,2.0,83,0.00,,,0.00,VWS V14.01,2014-01-02 02:04:00,
2014-01-02 03:09:00,52.3,47.3,30.10,NNE,31,2.0,2.0,83,0.00,,,0.00,VWS V14.01,2014-01-02 02:09:00,
2014-01-02 03:10:00,52.3,47.3,30.10,NNE,31,2.0,2.0,83,0.00,,,0.00,VWS V14.01,2014-01-02 02:10:00,
2014-01-02 03:14:00,52.3,47.3,30.09,NNE,31,1.0,2.0,83,0.00,,,0.00,VWS V14.01,2014-01-02 02:14:00,
2014-01-02 03:19:00,52.2,47.2,30.09,NNE,31,2.0,2.0,83,0.00,,,0.00,VWS V14.01,2014-01-02 02:19:00,
2014-01-02 03:20:00,52.2,47.2,30.09,NNE,31,2.0,2.0,83,0.00,,,0.00,VWS V14.01,2014-01-02 02:20:00,
2014-01-02 03:24:00,52.2,47.2,30.09,NNE,31,2.0,2.0,83,0.00,,,0.00,VWS V14.01,2014-01-02 02:24:00,
2014-01-02 03:29:00,52.3,47.3,30.10,NNE,31,2.0,3.0,83,0.00,,,0.00,VWS V14.01,2014-01-02 02:29:00,
2014-01-02 03:30:00,52.3,47.3,30.09,NNE,31,2.0,3.0,83,0.00,,,0.00,VWS V14.01,2014-01-02 02:30:00,
2014-01-02 03:34:00,52.3,47.3,30.09,NNE,31,1.0,3.0,83,0.00,,,0.00,VWS V14.01,2014-01-02 02:34:00,
2014-01-02 03:39:00,52.2,47.2,30.09,NNE,31,1.0,3.0,83,0.00,,,0.00,VWS V14.01,2014-01-02 02:39:00,
2014-01-02 03:40:00,52.2,47.2,30.09,NNE,31,0.0,3.0,83,0.00,,,0.00,VWS V14.01,2014-01-02 02:40:00,
2014-01-02 03:44:00,52.3,47.3,30.09,NNE,31,2.0,2.0,83,0.00,,,0.00,VWS V14.01,2014-01-02 02:44:00,
2014-01-02 03:49:00,52.3,47.3,30.09,NNE,31,0.0,2.0,83,0.00,,,0.00,VWS V14.01,2014-01-02 02:49:00,
2014-01-02 03:50:00,52.4,47.4,30.09,NNE,31,0.0,2.0,83,0.00,,,0.00,VWS V14.01,2014-01-02 02:50:00,
2014-01-02 03:53:00,52.4,47.4,30.09,NNE,31,0.0,0.0,83,0.00,,,0.00,VWS V14.01,2014-01-02 02:53:00,
2014-01-02 03:58:00,52.5,47.5,30.09,NNE,31,2.0,2.0,83,0.00,,,0.00,VWS V14.01,2014-01-02 02:58:00,
2014-01-02 04:00:00,52.5,47.5,30.09,NNE,31,2.0,3.0,83,0.00,,,0.00,VWS V14.01,2014-01-02 03:00:00,
2014-01-02 04:03:00,52.5,47.5,30.09,NNE,31,1.0,3.0,83,0.00,,,0.00,VWS V14.01,2014-01-02 03:03:00,
2014-01-02 04:08:00,52.5,47.5,30.09,NNE,31,2.0,3.0,83,0.00,,,0.00,VWS V14.01,2014-01-02 03:08:00,
2014-01-02 04:10:00,52.5,47.5,30.09,NNE,31,3.0,3.0,83,0.00,,,0.00,VWS V14.01,2014-01-02 03:10:00,
2014-01-02 04:13:00,52.5,47.2,30.09,NNE,31,3.0,3.0,82,0.00,,,0.00,VWS V14.01,2014-01-02 03:13:00,
2014-01-02 04:18:00,52.2,46.9,30.09,NNE,31,3.0,4.0,82,0.00,,,0.00,VWS V14.01,2014-01-02 03:18:00,
2014-01-02 04:20:00,52.2,47.2,30.09,NNE,31,2.0,4.0,83,0.00,,,0.00,VWS V14.01,2014-01-02 03:20:00,
2014-01-02 04:23:00,52.3,47.3,30.09,NNE,31,2.0,3.0,83,0.00,,,0.00,VWS V14.01,2014-01-02 03:23:00,
2014-01-02 04:28:00,52.4,47.4,30.08,NNE,31,2.0,3.0,83,0.00,,,0.00,VWS V14.01,2014-01-02 03:28:00,
2014-01-02 04:30:00,52.4,47.1,30.08,NNE,31,1.0,3.0,82,0.00,,,0.00,VWS V14.01,2014-01-02 03:30:00,
2014-01-02 04:33:00,52.1,46.8,30.08,NNE,31,2.0,3.0,82,0.00,,,0.00,VWS V14.01,2014-01-02 03:33:00,
2014-01-02 04:38:00,52.2,47.2,30.08,NNE,31,2.0,3.0,83,0.00,,,0.00,VWS V14.01,2014-01-02 03:38:00,
2014-01-02 04:40:00,52.3,47.3,30.09,NNE,31,2.0,3.0,83,0.00,,,0.00,VWS V14.01,2014-01-02 03:40:00,
2014-01-02 04:43:00,52.2,46.9,30.08,NNE,31,2.0,3.0,82,0.00,,,0.00,VWS V14.01,2014-01-02 03:43:00,
2014-01-02 04:48:00,52.1,46.8,30.08,NNE,31,3.0,3.0,82,0.00,,,0.00,VWS V14.01,2014-01-02 03:48:00,
2014-01-02 04:50:00,52.0,46.7,30.09,NNE,31,3.0,3.0,82,0.00,,,0.00,VWS V14.01,2014-01-02 03:50:00,
2014-01-02 04:53:00,51.6,46.3,30.09,NNE,31,2.0,3.0,82,0.00,,,0.00,VWS V14.01,2014-01-02 03:53:00,
2014-01-02 04:58:00,51.4,46.1,30.09,NNE,31,3.0,3.0,82,0.00,,,0.00,VWS V14.01,2014-01-02 03:58:00,
2014-01-02 05:00:00,51.4,46.1,30.09,NNE,31,3.0,4.0,82,0.00,,,0.00,VWS V14.01,2014-01-02 04:00:00,
2014-01-02 05:03:00,51.3,46.0,30.09,NNE,31,3.0,4.0,82,0.00,,,0.00,VWS V14.01,2014-01-02 04:03:00,
2014-01-02 05:08:00,51.3,46.3,30.09,NNE,31,4.0,4.0,83,0.00,,,0.00,VWS V14.01,2014-01-02 04:08:00,
2014-01-02 05:10:00,51.4,46.4,30.09,NNE,31,2.0,4.0,83,0.00,,,0.00,VWS V14.01,2014-01-02 04:10:00,
2014-01-02 05:13:00,51.4,46.4,30.09,NNE,31,2.0,3.0,83,0.00,,,0.00,VWS V14.01,2014-01-02 04:13:00,
2014-01-02 05:18:00,51.3,46.3,30.09,NNE,31,1.0,3.0,83,0.00,,,0.00,VWS V14.01,2014-01-02 04:18:00,
2014-01-02 05:20:00,51.3,46.3,30.09,NNE,31,1.0,3.0,83,0.00,,,0.00,VWS V14.01,2014-01-02 04:20:00,
2014-01-02 05:23:00,51.4,46.4,30.09,NNE,31,2.0,3.0,83,0.00,,,0.00,VWS V14.01,2014-01-02 04:23:00,
2014-01-02 05:28:00,51.4,46.1,30.09,NNE,31,1.0,3.0,82,0.00,,,0.00,VWS V14.01,2014-01-02 04:28:00,
2014-01-02 05:30:00,51.4,46.1,30.09,NNE,31,1.0,3.0,82,0.00,,,0.00,VWS V14.01,2014-01-02 04:30:00,
2014-01-02 05:33:00,51.6,46.6,30.09,NNE,31,0.0,2.0,83,0.00,,,0.00,VWS V14.01,2014-01-02 04:33:00,
2014-01-02 05:38:00,51.7,46.4,30.09,NNE,31,0.0,2.0,82,0.00,,,0.00,VWS V14.01,2014-01-02 04:38:00,
2014-01-02 05:40:00,51.7,46.4,30.09,NNE,31,0.0,2.0,82,0.00,,,0.00,VWS V14.01,2014-01-02 04:40:00,
2014-01-02 05:43:00,51.8,46.5,30.09,NNE,31,0.0,0.0,82,0.00,,,0.00,VWS V14.01,2014-01-02 04:43:00,
2014-01-02 05:48:00,52.0,46.7,30.09,NNE,31,0.0,0.0,82,0.00,,,0.00,VWS V14.01,2014-01-02 04:48:00,
2014-01-02 05:50:00,52.0,46.7,30.09,NNE,31,2.0,3.0,82,0.00,,,0.00,VWS V14.01,2014-01-02 04:50:00,
2014-01-02 05:53:00,52.0,46.7,30.09,NNE,31,2.0,2.0,82,0.00,,,0.00,VWS V14.01,2014-01-02 04:53:00,
2014-01-02 05:58:00,52.0,46.7,30.09,NNE,31,2.0,2.0,82,0.00,,,0.00,VWS V14.01,2014-01-02 04:58:00,
2014-01-02 06:00:00,52.1,46.5,30.09,NNE,31,1.0,2.0,81,0.00,,,0.00,VWS V14.01,2014-01-02 05:00:00,
2014-01-02 06:01:00,52.0,46.4,30.09,NNE,31,2.0,2.0,81,0.00,,,0.00,VWS V14.01,2014-01-02 05:01:00,
2014-01-02 06:06:00,52.1,46.5,30.09,NNE,31,2.0,2.0,81,0.00,,,0.00,VWS V14.01,2014-01-02 05:06:00,
2014-01-02 06:10:00,51.8,46.2,30.09,NNE,31,1.0,2.0,81,0.00,,,0.00,VWS V14.01,2014-01-02 05:10:00,
2014-01-02 06:11:00,51.8,46.2,30.09,NNE,31,2.0,2.0,81,0.00,,,0.00,VWS V14.01,2014-01-02 05:11:00,
2014-01-02 06:16:00,51.9,46.3,30.10,NNE,31,1.0,3.0,81,0.00,,,0.00,VWS V14.01,2014-01-02 05:16:00,
2014-01-02 06:20:00,52.0,46.4,30.09,NNE,31,1.0,3.0,81,0.00,,,0.00,VWS V14.01,2014-01-02 05:20:00,
2014-01-02 06:21:00,52.0,46.4,30.10,NNE,31,2.0,2.0,81,0.00,,,0.00,VWS V14.01,2014-01-02 05:21:00,
2014-01-02 06:26:00,52.0,46.4,30.10,NNE,31,2.0,3.0,81,0.00,,,0.00,VWS V14.01,2014-01-02 05:26:00,
2014-01-02 06:30:00,52.2,46.9,30.10,NNE,31,3.0,3.0,82,0.00,,,0.00,VWS V14.01,2014-01-02 05:30:00,
2014-01-02 06:31:00,52.2,46.5,30.10,NNE,31,3.0,3.0,81,0.00,,,0.00,VWS V14.01,2014-01-02 05:31:00,
2014-01-02 06:36:00,52.1,46.5,30.10,NNE,31,2.0,3.0,81,0.00,,,0.00,VWS V14.01,2014-01-02 05:36:00,
2014-01-02 06:40:00,52.0,46.4,30.10,NNE,31,3.0,4.0,81,0.00,,,0.00,VWS V14.01,2014-01-02 05:40:00,
2014-01-02 06:41:00,51.8,46.2,30.10,NNE,31,4.0,4.0,81,0.00,,,0.00,VWS V14.01,2014-01-02 05:41:00,
2014-01-02 06:46:00,51.3,45.7,30.10,NNE,31,3.0,5.0,81,0.00,,,0.00,VWS V14.01,2014-01-02 05:46:00,
2014-01-02 06:50:00,51.6,46.3,30.10,NNE,31,3.0,5.0,82,0.00,,,0.00,VWS V14.01,2014-01-02 05:50:00,
2014-01-02 06:51:00,51.6,46.3,30.10,NNE,31,3.0,3.0,82,0.00,,,0.00,VWS V14.01,2014-01-02 05:51:00,
2014-01-02 06:56:00,51.5,46.2,30.10,NNE,31,3.0,3.0,82,0.00,,,0.00,VWS V14.01,2014-01-02 05:56:00,
2014-01-02 07:00:00,51.4,46.1,30.10,NNE,31,1.0,3.0,82,0.00,,,0.00,VWS V14.01,2014-01-02 06:00:00,
2014-01-02 07:01:00,51.3,46.0,30.10,NNE,31,2.0,2.0,82,0.00,,,0.00,VWS V14.01,2014-01-02 06:01:00,
2014-01-02 07:06:00,51.4,46.1,30.11,NNE,31,3.0,4.0,82,0.00,,,0.00,VWS V14.01,2014-01-02 06:06:00,
2014-01-02 07:10:00,51.5,46.2,30.10,NNE,31,3.0,4.0,82,0.00,,,0.00,VWS V14.01,2014-01-02 06:10:00,
2014-01-02 07:11:00,51.6,46.3,30.10,NNE,31,2.0,3.0,82,0.00,,,0.00,VWS V14.01,2014-01-02 06:11:00,
2014-01-02 07:16:00,51.6,46.3,30.11,NNE,31,4.0,5.0,82,0.00,,,0.00,VWS V14.01,2014-01-02 06:16:00,
2014-01-02 07:20:00,51.6,46.3,30.10,NNE,31,3.0,5.0,82,0.00,,,0.00,VWS V14.01,2014-01-02 06:20:00,
2014-01-02 07:21:00,51.6,46.3,30.10,NNE,31,3.0,3.0,82,0.00,,,0.00,VWS V14.01,2014-01-02 06:21:00,
2014-01-02 07:26:00,51.4,46.1,30.10,NNE,31,2.0,5.0,82,0.00,,,0.00,VWS V14.01,2014-01-02 06:26:00,
2014-01-02 07:30:00,51.1,45.8,30.10,NNE,31,4.0,5.0,82,0.00,,,0.00,VWS V14.01,2014-01-02 06:30:00,
2014-01-02 07:31:00,51.1,45.8,30.10,NNE,31,3.0,4.0,82,0.00,,,0.00,VWS V14.01,2014-01-02 06:31:00,
2014-01-02 07:36:00,51.0,46.0,30.10,NNE,31,5.0,6.0,83,0.00,,,0.00,VWS V14.01,2014-01-02 06:36:00,
2014-01-02 07:40:00,51.1,46.1,30.10,NNE,31,4.0,6.0,83,0.00,,,0.00,VWS V14.01,2014-01-02 06:40:00,
2014-01-02 07:41:00,51.1,46.1,30.10,NNE,31,4.0,5.0,83,0.00,,,0.00,VWS V14.01,2014-01-02 06:41:00,
2014-01-02 07:46:00,51.1,46.1,30.10,NNE,31,4.0,6.0,83,0.00,,,0.00,VWS V14.01,2014-01-02 06:46:00,
2014-01-02 07:50:00,51.1,46.1,30.10,NNE,31,6.0,6.0,83,0.00,,,0.00,VWS V14.01,2014-01-02 06:50:00,
2014-01-02 07:51:00,51.1,46.1,30.10,NNE,31,4.0,5.0,83,0.00,,,0.00,VWS V14.01,2014-01-02 06:51:00,
2014-01-02 07:56:00,51.1,46.1,30.10,NNE,31,6.0,6.0,83,0.00,,,0.00,VWS V14.01,2014-01-02 06:56:00,
2014-01-02 08:00:00,51.0,46.0,30.10,NNE,31,5.0,6.0,83,0.00,,,0.00,VWS V14.01,2014-01-02 07:00:00,
2014-01-02 08:01:00,51.0,46.0,30.10,NNE,31,6.0,6.0,83,0.00,,,0.00,VWS V14.01,2014-01-02 07:01:00,
2014-01-02 08:06:00,51.1,46.1,30.10,NNE,31,4.0,6.0,83,0.00,,,0.00,VWS V14.01,2014-01-02 07:06:00,
2014-01-02 08:07:00,51.1,46.1,30.10,NNE,31,4.0,6.0,83,0.00,,,0.00,VWS V14.01,2014-01-02 07:07:00,
2014-01-02 08:10:00,51.2,46.2,30.10,NNE,31,4.0,7.0,83,0.00,,,0.00,VWS V14.01,2014-01-02 07:10:00,
2014-01-02 08:12:00,51.3,46.3,30.10,NNE,31,5.0,5.0,83,0.00,,,0.00,VWS V14.01,2014-01-02 07:12:00,
2014-01-02 08:17:00,51.5,46.5,30.10,NNE,31,3.0,5.0,83,0.00,,,0.00,VWS V14.01,2014-01-02 07:17:00,
2014-01-02 08:20:00,51.7,46.7,30.10,NNE,31,5.0,5.0,83,0.00,,,0.00,VWS V14.01,2014-01-02 07:20:00,
2014-01-02 08:22:00,51.7,46.7,30.10,NNE,31,4.0,5.0,83,0.00,,,0.00,VWS V14.01,2014-01-02 07:22:00,
2014-01-02 08:27:00,52.0,47.0,30.10,NNE,31,4.0,5.0,83,0.00,,,0.00,VWS V14.01,2014-01-02 07:27:00,
2014-01-02 08:30:00,52.2,47.2,30.10,NNE,31,4.0,5.0,83,0.00,,,0.00,VWS V14.01,2014-01-02 07:30:00,
2014-01-02 08:32:00,52.2,47.2,30.10,NNE,31,3.0,4.0,83,0.00,,,0.00,VWS V14.01,2014-01-02 07:32:00,
2014-01-02 08:37:00,52.2,46.9,30.10,NNE,31,6.0,6.0,82,0.00,,,0.00,VWS V14.01,2014-01-02 07:37:00,
2014-01-02 08:40:00,52.2,46.9,30.10,NNE,31,5.0,6.0,82,0.00,,,0.00,VWS V14.01,2014-01-02 07:40:00,
2014-01-02 08:42:00,52.2,46.9,30.11,NNE,31,3.0,6.0,82,0.00,,,0.00,VWS V14.01,2014-01-02 07:42:00,
2014-01-02 08:47:00,52.3,47.0,30.11,NNE,31,2.0,6.0,82,0.00,,,0.00,VWS V14.01,2014-01-02 07:47:00,
2014-01-02 08:50:00,52.3,47.0,30.11,NNE,31,2.0,6.0,82,0.00,,,0.00,VWS V14.01,2014-01-02 07:50:00,
2014-01-02 08:52:00,52.3,47.0,30.11,NNE,31,2.0,2.0,82,0.00,,,0.00,VWS V14.01,2014-01-02 07:52:00,
2014-01-02 08:57:00,52.3,47.0,30.11,NNE,31,3.0,5.0,82,0.00,,,0.00,VWS V14.01,2014-01-02 07:57:00,
2014-01-02 09:00:00,52.5,47.2,30.11,NNE,31,2.0,5.0,82,0.00,,,0.00,VWS V14.01,2014-01-02 08:00:00,
2014-01-02 09:02:00,52.5,47.2,30.11,NNE,31,2.0,3.0,82,0.00,,,0.00,VWS V14.01,2014-01-02 08:02:00,
2014-01-02 09:07:00,52.8,47.1,30.12,NNE,31,3.0,4.0,81,0.00,,,0.00,VWS V14.01,2014-01-02 08:07:00,
2014-01-02 09:10:00,53.0,47.3,30.12,NNE,31,4.0,5.0,81,0.00,,,0.00,VWS V14.01,2014-01-02 08:10:00,
2014-01-02 09:12:00,53.0,47.3,30.12,NNE,31,1.0,4.0,81,0.00,,,0.00,VWS V14.01,2014-01-02 08:12:00,
2014-01-02 09:17:00,53.2,47.2,30.12,NNE,31,3.0,5.0,80,0.00,,,0.00,VWS V14.01,2014-01-02 08:17:00,
2014-01-02 09:20:00,53.4,47.4,30.12,NNE,31,1.0,5.0,80,0.00,,,0.00,VWS V14.01,2014-01-02 08:20:00,
2014-01-02 09:22:00,53.5,47.5,30.12,NNE,31,3.0,3.0,80,0.00,,,0.00,VWS V14.01,2014-01-02 08:22:00,
2014-01-02 09:27:00,53.8,47.8,30.11,NNE,31,0.0,3.0,80,0.00,,,0.00,VWS V14.01,2014-01-02 08:27:00,
2014-01-02 09:30:00,54.2,48.2,30.12,NNE,31,0.0,3.0,80,0.00,,,0.00,VWS V14.01,2014-01-02 08:30:00,
2014-01-02 09:32:00,54.2,48.2,30.12,NNE,31,0.0,0.0,80,0.00,,,0.00,VWS V14.01,2014-01-02 08:32:00,
2014-01-02 09:37:00,54.5,48.1,30.12,NNE,31,0.0,0.0,79,0.00,,,0.00,VWS V14.01,2014-01-02 08:37:00,
2014-01-02 09:40:00,55.0,48.6,30.12,NNE,31,0.0,1.0,79,0.00,,,0.00,VWS V14.01,2014-01-02 08:40:00,
2014-01-02 09:42:00,55.2,48.8,30.12,NNE,31,0.0,0.0,79,0.00,,,0.00,VWS V14.01,2014-01-02 08:42:00,
2014-01-02 09:47:00,55.5,48.8,30.12,NNE,31,0.0,0.0,78,0.00,,,0.00,VWS V14.01,2014-01-02 08:47:00,
2014-01-02 09:50:00,55.6,48.5,30.12,NNE,31,2.0,3.0,77,0.00,,,0.00,VWS V14.01,2014-01-02 08:50:00,
2014-01-02 09:52:00,55.4,48.3,30.12,NNE,31,0.0,2.0,77,0.00,,,0.00,VWS V14.01,2014-01-02 08:52:00,
2014-01-02 09:57:00,55.7,48.6,30.12,NNE,31,0.0,2.0,77,0.00,,,0.00,VWS V14.01,2014-01-02 08:57:00,
2014-01-02 10:00:00,56.2,49.1,30.12,NNE,31,0.0,3.0,77,0.00,,,0.00,VWS V14.01,2014-01-02 09:00:00,
2014-01-02 10:02:00,56.4,49.3,30.12,NNE,31,0.0,0.0,77,0.00,,,0.00,VWS V14.01,2014-01-02 09:02:00,
2014-01-02 10:07:00,56.6,49.1,30.12,NNE,31,3.0,4.0,76,0.00,,,0.00,VWS V14.01,2014-01-02 09:07:00,
2014-01-02 10:10:00,56.5,48.7,30.12,NNE,31,1.0,4.0,75,0.00,,,0.00,VWS V14.01,2014-01-02 09:10:00,
2014-01-02 10:12:00,56.4,48.6,30.11,NNE,31,2.0,2.0,75,0.00,,,0.00,VWS V14.01,2014-01-02 09:12:00,
2014-01-02 10:17:00,56.3,48.1,30.12,ENE,72,2.0,4.0,74,0.00,,,0.00,VWS V14.01,2014-01-02 09:17:00,
2014-01-02 10:20:00,56.3,48.5,30.12,South,176,5.0,7.0,75,0.00,,,0.00,VWS V14.01,2014-01-02 09:20:00,
2014-01-02 10:22:00,56.3,48.5,30.11,South,176,3.0,4.0,75,0.00,,,0.00,VWS V14.01,2014-01-02 09:22:00,
2014-01-02 10:27:00,56.4,48.6,30.11,South,175,3.0,5.0,75,0.00,,,0.00,VWS V14.01,2014-01-02 09:27:00,
2014-01-02 10:30:00,56.2,48.4,30.11,South,175,4.0,5.0,75,0.00,,,0.00,VWS V14.01,2014-01-02 09:30:00,
2014-01-02 10:32:00,56.1,47.9,30.11,South,175,3.0,3.0,74,0.00,,,0.00,VWS V14.01,2014-01-02 09:32:00,
2014-01-02 10:37:00,55.9,48.1,30.11,South,175,3.0,5.0,75,0.00,,,0.00,VWS V14.01,2014-01-02 09:37:00,
2014-01-02 10:40:00,55.8,48.0,30.11,South,175,3.0,5.0,75,0.00,,,0.00,VWS V14.01,2014-01-02 09:40:00,
2014-01-02 10:42:00,55.8,48.0,30.11,South,175,0.0,3.0,75,0.00,,,0.00,VWS V14.01,2014-01-02 09:42:00,
2014-01-02 10:47:00,55.8,48.0,30.11,South,175,1.0,5.0,75,0.00,,,0.00,VWS V14.01,2014-01-02 09:47:00,
2014-01-02 10:50:00,55.8,47.7,30.10,South,175,4.0,5.0,74,0.00,,,0.00,VWS V14.01,2014-01-02 09:50:00,
2014-01-02 10:52:00,55.8,47.7,30.10,South,175,3.0,4.0,74,0.00,,,0.00,VWS V14.01,2014-01-02 09:52:00,
2014-01-02 10:57:00,55.8,47.7,30.10,South,175,4.0,5.0,74,0.00,,,0.00,VWS V14.01,2014-01-02 09:57:00,
2014-01-02 11:00:00,55.9,47.7,30.10,South,174,2.0,6.0,74,0.00,,,0.00,VWS V14.01,2014-01-02 10:00:00,
2014-01-02 11:02:00,55.9,48.1,30.11,South,174,3.0,4.0,75,0.00,,,0.00,VWS V14.01,2014-01-02 10:02:00,
2014-01-02 11:07:00,56.0,48.2,30.10,South,174,0.0,4.0,75,0.00,,,0.00,VWS V14.01,2014-01-02 10:07:00,
2014-01-02 11:10:00,56.1,48.3,30.10,South,172,3.0,7.0,75,0.00,,,0.00,VWS V14.01,2014-01-02 10:10:00,
2014-01-02 11:12:00,56.1,48.3,30.10,South,169,6.0,6.0,75,0.00,,,0.00,VWS V14.01,2014-01-02 10:12:00,
2014-01-02 11:17:00,56.5,48.3,30.10,SSE,167,2.0,6.0,74,0.00,,,0.00,VWS V14.01,2014-01-02 10:17:00,
2014-01-02 11:20:00,56.7,47.8,30.10,South,174,3.0,7.0,72,0.00,,,0.00,VWS V14.01,2014-01-02 10:20:00,
2014-01-02 11:22:00,56.7,47.8,30.10,South,180,5.0,6.0,72,0.00,,,0.00,VWS V14.01,2014-01-02 10:22:00,
2014-01-02 11:27:00,56.7,47.8,30.10,South,186,2.0,8.0,72,0.00,,,0.00,VWS V14.01,2014-01-02 10:27:00,
2014-01-02 11:30:00,56.7,47.8,30.10,SSW,193,5.0,8.0,72,0.00,,,0.00,VWS V14.01,2014-01-02 10:30:00,
2014-01-02 11:32:00,56.7,47.8,30.10,SSW,193,4.0,6.0,72,0.00,,,0.00,VWS V14.01,2014-01-02 10:32:00,
2014-01-02 11:37:00,56.7,47.8,30.10,SSW,206,7.0,7.0,72,0.00,,,0.00,VWS V14.01,2014-01-02 10:37:00,
2014-01-02 11:40:00,56.7,48.2,30.09,South,177,2.0,9.0,73,0.00,,,0.00,VWS V14.01,2014-01-02 10:40:00,
2014-01-02 11:43:00,56.9,48.3,30.09,SSE,159,9.0,9.0,73,0.00,,,0.00,VWS V14.01,2014-01-02 10:43:00,
2014-01-02 11:48:00,57.1,48.2,30.09,South,180,3.0,9.0,72,0.00,,,0.00,VWS V14.01,2014-01-02 10:48:00,
2014-01-02 11:50:00,57.1,48.2,30.09,South,179,2.0,9.0,72,0.00,,,0.00,VWS V14.01,2014-01-02 10:50:00,
2014-01-02 11:53:00,57.2,48.6,30.09,South,179,3.0,3.0,73,0.00,,,0.00,VWS V14.01,2014-01-02 10:53:00,
2014-01-02 11:58:00,57.1,48.5,30.09,South,171,4.0,7.0,73,0.00,,,0.00,VWS V14.01,2014-01-02 10:58:00,
2014-01-02 12:00:00,57.0,48.4,30.09,South,173,4.0,7.0,73,0.00,,,0.00,VWS V14.01,2014-01-02 11:00:00,
2014-01-02 12:03:00,56.9,48.7,30.09,South,175,4.0,5.0,74,0.00,,,0.00,VWS V14.01,2014-01-02 11:03:00,
2014-01-02 12:08:00,56.5,48.3,30.09,SSE,157,5.0,9.0,74,0.00,,,0.00,VWS V14.01,2014-01-02 11:08:00,
2014-01-02 12:10:00,56.5,48.7,30.09,SSE,157,3.0,9.0,75,0.00,,,0.00,VWS V14.01,2014-01-02 11:10:00,
2014-01-02 12:13:00,56.6,48.8,30.09,SSE,159,3.0,5.0,75,0.00,,,0.00,VWS V14.01,2014-01-02 11:13:00,
2014-01-02 12:18:00,56.8,49.0,30.09,SSE,159,3.0,5.0,75,0.00,,,0.00,VWS V14.01,2014-01-02 11:18:00,
2014-01-02 12:20:00,56.6,48.8,30.09,SSE,159,1.0,6.0,75,0.00,,,0.00,VWS V14.01,2014-01-02 11:20:00,
2014-01-02 12:23:00,56.6,48.8,30.09,SSE,147,2.0,6.0,75,0.00,,,0.00,VWS V14.01,2014-01-02 11:23:00,
2014-01-02 12:28:00,57.0,49.2,30.08,South,183,6.0,8.0,75,0.00,,,0.00,VWS V14.01,2014-01-02 11:28:00,
2014-01-02 12:30:00,57.0,48.8,30.08,South,177,0.0,8.0,74,0.00,,,0.00,VWS V14.01,2014-01-02 11:30:00,
2014-01-02 12:33:00,57.1,48.9,30.08,South,180,5.0,5.0,74,0.00,,,0.00,VWS V14.01,2014-01-02 11:33:00,
2014-01-02 12:38:00,57.0,48.8,30.08,South,175,4.0,6.0,74,0.00,,,0.00,VWS V14.01,2014-01-02 11:38:00,
2014-01-02 12:40:00,56.8,48.6,30.08,South,181,6.0,8.0,74,0.00,,,0.00,VWS V14.01,2014-01-02 11:40:00,
2014-01-02 12:43:00,56.9,48.7,30.08,South,179,3.0,6.0,74,0.00,,,0.00,VWS V14.01,2014-01-02 11:43:00,
2014-01-02 12:48:00,57.3,49.1,30.08,South,179,5.0,6.0,74,0.00,,,0.00,VWS V14.01,2014-01-02 11:48:00,
2014-01-02 12:50:00,57.4,49.2,30.08,South,179,3.0,6.0,74,0.00,,,0.00,VWS V14.01,2014-01-02 11:50:00,
2014-01-02 12:53:00,57.3,48.7,30.08,South,179,4.0,5.0,73,0.00,,,0.00,VWS V14.01,2014-01-02 11:53:00,
2014-01-02 12:58:00,56.9,48.3,30.08,South,191,5.0,6.0,73,0.00,,,0.00,VWS V14.01,2014-01-02 11:58:00,
2014-01-02 13:00:00,56.9,48.3,30.08,South,189,6.0,6.0,73,0.00,,,0.00,VWS V14.01,2014-01-02 12:00:00,
2014-01-02 13:03:00,57.0,48.8,30.08,South,187,7.0,7.0,74,0.00,,,0.00,VWS V14.01,2014-01-02 12:03:00,
2014-01-02 13:08:00,56.7,48.2,30.08,SSW,198,6.0,8.0,73,0.00,,,0.00,VWS V14.01,2014-01-02 12:08:00,
2014-01-02 13:10:00,56.7,48.2,30.08,SSW,199,7.0,8.0,73,0.00,,,0.00,VWS V14.01,2014-01-02 12:10:00,
2014-01-02 13:13:00,56.6,48.1,30.08,SW,216,5.0,8.0,73,0.00,,,0.00,VWS V14.01,2014-01-02 12:13:00,
2014-01-02 13:18:00,56.5,48.0,30.08,SW,219,4.0,8.0,73,0.00,,,0.00,VWS V14.01,2014-01-02 12:18:00,
2014-01-02 13:20:00,56.6,48.1,30.08,SW,219,4.0,8.0,73,0.00,,,0.00,VWS V14.01,2014-01-02 12:20:00,
2014-01-02 13:23:00,56.6,48.1,30.08,SW,236,8.0,8.0,73,0.00,,,0.00,VWS V14.01,2014-01-02 12:23:00,
2014-01-02 13:28:00,56.5,48.0,30.07,SW,220,7.0,9.0,73,0.00,,,0.00,VWS V14.01,2014-01-02 12:28:00,
2014-01-02 13:30:00,56.5,48.0,30.07,SSW,196,6.0,9.0,73,0.00,,,0.00,VWS V14.01,2014-01-02 12:30:00,
2014-01-02 13:33:00,56.6,48.4,30.07,SSW,205,7.0,7.0,74,0.00,,,0.00,VWS V14.01,2014-01-02 12:33:00,
2014-01-02 13:38:00,56.5,48.3,30.07,SSW,213,4.0,8.0,74,0.00,,,0.00,VWS V14.01,2014-01-02 12:38:00,
2014-01-02 13:40:00,56.5,48.3,30.07,SSW,204,3.0,8.0,74,0.00,,,0.00,VWS V14.01,2014-01-02 12:40:00,
2014-01-02 13:43:00,56.6,48.4,30.07,SSW,196,3.0,7.0,74,0.00,,,0.00,VWS V14.01,2014-01-02 12:43:00,
2014-01-02 13:48:00,56.6,48.4,30.07,SW,226,3.0,9.0,74,0.00,,,0.00,VWS V14.01,2014-01-02 12:48:00,
2014-01-02 13:50:00,56.6,48.4,30.07,SW,223,3.0,9.0,74,0.00,,,0.00,VWS V14.01,2014-01-02 12:50:00,
2014-01-02 13:53:00,56.7,48.9,30.07,South,171,3.0,9.0,75,0.00,,,0.00,VWS V14.01,2014-01-02 12:53:00,
2014-01-02 13:58:00,56.7,48.5,30.07,SSW,194,5.0,9.0,74,0.00,,,0.00,VWS V14.01,2014-01-02 12:58:00,
2014-01-02 14:00:00,56.6,48.4,30.06,SW,220,9.0,9.0,74,0.00,,,0.00,VWS V14.01,2014-01-02 13:00:00,
2014-01-02 14:03:00,56.6,48.4,30.07,SSW,213,3.0,8.0,74,0.00,,,0.00,VWS V14.01,2014-01-02 13:03:00,
2014-01-02 14:08:00,56.8,48.6,30.07,WSW,241,6.0,8.0,74,0.00,,,0.00,VWS V14.01,2014-01-02 13:08:00,
2014-01-02 14:10:00,56.8,48.6,30.07,SSW,199,6.0,8.0,74,0.00,,,0.00,VWS V14.01,2014-01-02 13:10:00,
2014-01-02 14:13:00,56.8,48.6,30.07,SW,214,5.0,8.0,74,0.00,,,0.00,VWS V14.01,2014-01-02 13:13:00,
2014-01-02 14:18:00,56.9,48.7,30.07,SSW,211,5.0,8.0,74,0.00,,,0.00,VWS V14.01,2014-01-02 13:18:00,
2014-01-02 14:20:00,56.9,48.7,30.07,SW,228,7.0,9.0,74,0.00,,,0.00,VWS V14.01,2014-01-02 13:20:00,
2014-01-02 14:23:00,56.8,48.6,30.07,SW,223,6.0,7.0,74,0.00,,,0.00,VWS V14.01,2014-01-02 13:23:00,
2014-01-02 14:28:00,56.7,48.5,30.07,SSW,208,6.0,8.0,74,0.00,,,0.00,VWS V14.01,2014-01-02 13:28:00,
2014-01-02 14:30:00,56.7,48.5,30.07,SSW,206,3.0,8.0,74,0.00,,,0.00,VWS V14.01,2014-01-02 13:30:00,
2014-01-02 14:33:00,56.7,48.5,30.07,SSW,211,6.0,7.0,74,0.00,,,0.00,VWS V14.01,2014-01-02 13:33:00,
2014-01-02 14:38:00,56.5,48.3,30.07,SW,223,3.0,9.0,74,0.00,,,0.00,VWS V14.01,2014-01-02 13:38:00,
2014-01-02 14:40:00,56.6,48.4,30.07,SW,221,3.0,9.0,74,0.00,,,0.00,VWS V14.01,2014-01-02 13:40:00,
2014-01-02 14:43:00,56.6,48.4,30.07,SW,221,3.0,4.0,74,0.00,,,0.00,VWS V14.01,2014-01-02 13:43:00,
2014-01-02 14:48:00,56.6,48.4,30.07,SW,217,2.0,8.0,74,0.00,,,0.00,VWS V14.01,2014-01-02 13:48:00,
2014-01-02 14:50:00,56.7,48.9,30.07,SW,218,3.0,8.0,75,0.00,,,0.00,VWS V14.01,2014-01-02 13:50:00,
2014-01-02 14:53:00,56.7,48.9,30.07,SW,218,4.0,4.0,75,0.00,,,0.00,VWS V14.01,2014-01-02 13:53:00,
2014-01-02 14:58:00,56.6,48.8,30.07,SSW,210,3.0,9.0,75,0.00,,,0.00,VWS V14.01,2014-01-02 13:58:00,
2014-01-02 15:00:00,56.6,48.8,30.07,SSW,209,3.0,9.0,75,0.00,,,0.00,VWS V14.01,2014-01-02 14:00:00,
2014-01-02 15:03:00,56.7,48.9,30.07,SSW,209,5.0,6.0,75,0.00,,,0.00,VWS V14.01,2014-01-02 14:03:00,
2014-01-02 15:08:00,56.7,48.9,30.07,SSW,210,7.0,7.0,75,0.00,,,0.00,VWS V14.01,2014-01-02 14:08:00,
2014-01-02 15:10:00,56.7,48.9,30.07,SSW,211,5.0,7.0,75,0.00,,,0.00,VWS V14.01,2014-01-02 14:10:00,
2014-01-02 15:13:00,56.7,48.9,30.07,SSW,211,4.0,7.0,75,0.00,,,0.00,VWS V14.01,2014-01-02 14:13:00,
2014-01-02 15:18:00,56.7,49.2,30.07,SSW,205,5.0,7.0,76,0.00,,,0.00,VWS V14.01,2014-01-02 14:18:00,
2014-01-02 15:20:00,56.8,49.3,30.07,SSW,205,1.0,7.0,76,0.00,,,0.00,VWS V14.01,2014-01-02 14:20:00,
2014-01-02 15:23:00,56.8,49.3,30.07,SSW,199,7.0,7.0,76,0.00,,,0.00,VWS V14.01,2014-01-02 14:23:00,
2014-01-02 15:28:00,56.8,49.3,30.07,SSW,196,3.0,7.0,76,0.00,,,0.00,VWS V14.01,2014-01-02 14:28:00,
2014-01-02 15:30:00,56.8,49.3,30.07,SSW,192,4.0,7.0,76,0.00,,,0.00,VWS V14.01,2014-01-02 14:30:00,
2014-01-02 15:33:00,56.8,49.3,30.07,South,191,5.0,8.0,76,0.00,,,0.00,VWS V14.01,2014-01-02 14:33:00,
2014-01-02 15:38:00,56.7,49.2,30.08,SSW,209,3.0,11.0,76,0.00,,,0.00,VWS V14.01,2014-01-02 14:38:00,
2014-01-02 15:40:00,56.7,49.6,30.07,South,182,5.0,11.0,77,0.00,,,0.00,VWS V14.01,2014-01-02 14:40:00,
2014-01-02 15:43:00,56.7,49.6,30.07,South,184,7.0,8.0,77,0.00,,,0.00,VWS V14.01,2014-01-02 14:43:00,
2014-01-02 15:48:00,56.7,49.6,30.07,SSW,194,3.0,9.0,77,0.00,,,0.00,VWS V14.01,2014-01-02 14:48:00,
2014-01-02 15:50:00,56.7,49.9,30.07,South,186,5.0,9.0,78,0.00,,,0.00,VWS V14.01,2014-01-02 14:50:00,
2014-01-02 15:53:00,56.7,49.9,30.07,South,186,2.0,5.0,78,0.00,,,0.00,VWS V14.01,2014-01-02 14:53:00,
2014-01-02 15:58:00,56.7,49.9,30.07,South,185,3.0,7.0,78,0.00,,,0.00,VWS V14.01,2014-01-02 14:58:00,
2014-01-02 16:00:00,56.8,50.4,30.07,SSW,213,7.0,9.0,79,0.00,,,0.00,VWS V14.01,2014-01-02 15:00:00,
2014-01-02 16:03:00,56.7,50.3,30.07,South,189,5.0,7.0,79,0.00,,,0.00,VWS V14.01,2014-01-02 15:03:00,
2014-01-02 16:08:00,56.7,50.3,30.07,SSW,192,4.0,10.0,79,0.00,,,0.00,VWS V14.01,2014-01-02 15:08:00,
2014-01-02 16:10:00,56.7,50.3,30.07,SSW,192,3.0,10.0,79,0.00,,,0.00,VWS V14.01,2014-01-02 15:10:00,
2014-01-02 16:13:00,56.7,50.3,30.07,SSW,192,5.0,5.0,79,0.00,,,0.00,VWS V14.01,2014-01-02 15:13:00,
2014-01-02 16:18:00,56.7,50.3,30.07,SSW,195,7.0,8.0,79,0.00,,,0.00,VWS V14.01,2014-01-02 15:18:00,
2014-01-02 16:20:00,56.7,50.3,30.07,SSW,204,7.0,10.0,79,0.00,,,0.00,VWS V14.01,2014-01-02 15:20:00,
2014-01-02 16:23:00,56.7,50.3,30.07,SSW,213,6.0,7.0,79,0.00,,,0.00,VWS V14.01,2014-01-02 15:23:00,
2014-01-02 16:28:00,56.6,50.2,30.07,South,184,8.0,8.0,79,0.00,,,0.00,VWS V14.01,2014-01-02 15:28:00,
2014-01-02 16:30:00,56.6,50.2,30.07,SSW,202,7.0,9.0,79,0.00,,,0.00,VWS V14.01,2014-01-02 15:30:00,
2014-01-02 16:33:00,56.6,50.2,30.07,SSW,198,6.0,7.0,79,0.00,,,0.00,VWS V14.01,2014-01-02 15:33:00,
2014-01-02 16:38:00,56.6,50.2,30.07,South,183,2.0,9.0,79,0.00,,,0.00,VWS V14.01,2014-01-02 15:38:00,
2014-01-02 16:40:00,56.6,50.2,30.07,South,180,4.0,9.0,79,0.00,,,0.00,VWS V14.01,2014-01-02 15:40:00,
2014-01-02 16:43:00,56.6,50.5,30.07,South,178,1.0,4.0,80,0.00,,,0.00,VWS V14.01,2014-01-02 15:43:00,
2014-01-02 16:48:00,56.7,50.6,30.08,South,178,3.0,6.0,80,0.00,,,0.00,VWS V14.01,2014-01-02 15:48:00,
2014-01-02 16:50:00,56.7,50.6,30.07,South,176,6.0,10.0,80,0.00,,,0.00,VWS V14.01,2014-01-02 15:50:00,
2014-01-02 16:53:00,56.7,50.6,30.08,South,170,4.0,8.0,80,0.00,,,0.00,VWS V14.01,2014-01-02 15:53:00,
2014-01-02 16:58:00,56.8,50.7,30.08,South,188,4.0,9.0,80,0.00,,,0.00,VWS V14.01,2014-01-02 15:58:00,
2014-01-02 17:00:00,56.8,51.0,30.07,SW,219,2.0,10.0,81,0.00,,,0.00,VWS V14.01,2014-01-02 16:00:00,
2014-01-02 17:03:00,56.8,51.0,30.08,South,188,6.0,9.0,81,0.00,,,0.00,VWS V14.01,2014-01-02 16:03:00,
2014-01-02 17:08:00,56.8,51.0,30.08,SSW,201,4.0,10.0,81,0.00,,,0.00,VWS V14.01,2014-01-02 16:08:00,
2014-01-02 17:10:00,56.8,51.0,30.08,South,184,6.0,10.0,81,0.00,,,0.00,VWS V14.01,2014-01-02 16:10:00,
2014-01-02 17:13:00,56.8,51.0,30.08,South,184,5.0,8.0,81,0.00,,,0.00,VWS V14.01,2014-01-02 16:13:00,
2014-01-02 17:18:00,56.9,51.1,30.08,South,186,5.0,9.0,81,0.00,,,0.00,VWS V14.01,2014-01-02 16:18:00,
2014-01-02 17:20:00,56.9,51.5,30.08,SSW,200,8.0,9.0,82,0.00,,,0.00,VWS V14.01,2014-01-02 16:20:00,
2014-01-02 17:23:00,56.9,51.5,30.08,SSW,197,5.0,9.0,82,0.00,,,0.00,VWS V14.01,2014-01-02 16:23:00,
2014-01-02 17:28:00,56.7,51.6,30.08,SW,219,3.0,15.0,83,0.00,,,0.00,VWS V14.01,2014-01-02 16:28:00,
2014-01-02 17:30:00,56.7,51.6,30.08,SSW,211,2.0,15.0,83,0.00,,,0.00,VWS V14.01,2014-01-02 16:30:00,
2014-01-02 17:33:00,56.6,51.5,30.08,SW,215,4.0,6.0,83,0.00,,,0.00,VWS V14.01,2014-01-02 16:33:00,
2014-01-02 17:38:00,56.5,51.7,30.08,South,190,1.0,10.0,84,0.00,,,0.00,VWS V14.01,2014-01-02 16:38:00,
2014-01-02 17:40:00,56.5,51.7,30.08,South,174,9.0,10.0,84,0.00,,,0.00,VWS V14.01,2014-01-02 16:40:00,
2014-01-02 17:43:00,56.6,51.8,30.08,South,184,9.0,9.0,84,0.00,,,0.00,VWS V14.01,2014-01-02 16:43:00,
2014-01-02 17:48:00,56.6,51.8,30.08,SSW,192,4.0,10.0,84,0.00,,,0.00,VWS V14.01,2014-01-02 16:48:00,
2014-01-02 17:50:00,56.5,51.7,30.08,South,186,9.0,12.0,84,0.00,,,0.00,VWS V14.01,2014-01-02 16:50:00,
2014-01-02 17:53:00,56.4,51.6,30.08,South,191,8.0,12.0,84,0.00,,,0.00,VWS V14.01,2014-01-02 16:53:00,
2014-01-02 17:58:00,56.6,52.2,30.08,SSW,201,7.0,12.0,85,0.00,,,0.00,VWS V14.01,2014-01-02 16:58:00,
2014-01-02 18:00:00,56.6,52.2,30.08,SW,222,10.0,14.0,85,0.00,,,0.00,VWS V14.01,2014-01-02 17:00:00,
2014-01-02 18:03:00,56.6,51.8,30.08,SW,215,6.0,13.0,84,0.00,,,0.00,VWS V14.01,2014-01-02 17:03:00,
2014-01-02 18:08:00,56.7,51.9,30.08,SSW,193,6.0,14.0,84,0.00,,,0.00,VWS V14.01,2014-01-02 17:08:00,
2014-01-02 18:10:00,56.6,52.2,30.08,SW,219,8.0,14.0,85,0.01,,,0.01,VWS V14.01,2014-01-02 17:10:00,
2014-01-02 18:13:00,56.6,52.2,30.08,SSW,211,7.0,11.0,85,0.01,,,0.01,VWS V14.01,2014-01-02 17:13:00,
2014-01-02 18:18:00,56.6,52.2,30.08,SSW,201,9.0,11.0,85,0.01,,,0.01,VWS V14.01,2014-01-02 17:18:00,
2014-01-02 18:20:00,56.6,52.2,30.08,SSW,194,7.0,11.0,85,0.01,,,0.01,VWS V14.01,2014-01-02 17:20:00,
2014-01-02 18:23:00,56.6,51.8,30.08,SW,229,6.0,13.0,84,0.01,,,0.01,VWS V14.01,2014-01-02 17:23:00,
2014-01-02 18:28:00,56.7,52.2,30.08,SW,226,9.0,13.0,85,0.01,,,0.01,VWS V14.01,2014-01-02 17:28:00,
2014-01-02 18:30:00,56.6,51.8,30.09,WSW,240,10.0,13.0,84,0.01,,,0.01,VWS V14.01,2014-01-02 17:30:00,
2014-01-02 18:33:00,56.5,51.7,30.09,SW,221,8.0,11.0,84,0.01,,,0.01,VWS V14.01,2014-01-02 17:33:00,
2014-01-02 18:38:00,56.5,52.0,30.09,SSW,200,4.0,11.0,85,0.01,,,0.01,VWS V14.01,2014-01-02 17:38:00,
2014-01-02 18:40:00,56.5,52.0,30.09,SSW,196,5.0,11.0,85,0.01,,,0.01,VWS V14.01,2014-01-02 17:40:00,
2014-01-02 18:43:00,56.5,52.0,30.09,SSW,203,8.0,10.0,85,0.01,,,0.01,VWS V14.01,2014-01-02 17:43:00,
2014-01-02 18:48:00,56.4,52.0,30.09,SW,225,2.0,10.0,85,0.01,,,0.01,VWS V14.01,2014-01-02 17:48:00,
2014-01-02 18:50:00,56.3,52.2,30.09,SSW,209,2.0,10.0,86,0.01,,,0.01,VWS V14.01,2014-01-02 17:50:00,
2014-01-02 18:53:00,56.3,52.2,30.09,SSW,200,4.0,5.0,86,0.01,,,0.01,VWS V14.01,2014-01-02 17:53:00,
2014-01-02 18:58:00,56.1,52.0,30.09,SW,222,3.0,7.0,86,0.02,,,0.02,VWS V14.01,2014-01-02 17:58:00,
2014-01-02 19:00:00,56.1,52.3,30.09,SSW,209,5.0,12.0,87,0.02,,,0.02,VWS V14.01,2014-01-02 18:00:00,
2014-01-02 19:03:00,55.9,52.1,30.09,SW,221,9.0,9.0,87,0.02,,,0.02,VWS V14.01,2014-01-02 18:03:00,
2014-01-02 19:08:00,55.8,52.0,30.09,South,173,4.0,9.0,87,0.04,,,0.04,VWS V14.01,2014-01-02 18:08:00,
2014-01-02 19:10:00,55.8,52.3,30.09,South,175,4.0,9.0,88,0.04,,,0.04,VWS V14.01,2014-01-02 18:10:00,
2014-01-02 19:13:00,55.7,52.2,30.09,SSE,166,4.0,7.0,88,0.04,,,0.05,VWS V14.01,2014-01-02 18:13:00,
2014-01-02 19:18:00,55.6,52.1,30.09,SSE,165,2.0,7.0,88,0.05,,,0.06,VWS V14.01,2014-01-02 18:18:00,
2014-01-02 19:20:00,55.4,51.9,30.09,SSE,165,5.0,7.0,88,0.06,,,0.07,VWS V14.01,2014-01-02 18:20:00,
2014-01-02 19:23:00,55.4,52.2,30.09,South,171,4.0,6.0,89,0.07,,,0.08,VWS V14.01,2014-01-02 18:23:00,
2014-01-02 19:28:00,55.5,52.6,30.09,SW,216,5.0,11.0,90,0.09,,,0.10,VWS V14.01,2014-01-02 18:28:00,
2014-01-02 19:30:00,55.6,52.7,30.09,SW,235,6.0,11.0,90,0.09,,,0.10,VWS V14.01,2014-01-02 18:30:00,
2014-01-02 19:33:00,55.7,52.8,30.09,SW,230,4.0,9.0,90,0.09,,,0.10,VWS V14.01,2014-01-02 18:33:00,
2014-01-02 19:38:00,55.6,52.7,30.08,SW,216,9.0,11.0,90,0.09,,,0.10,VWS V14.01,2014-01-02 18:38:00,
2014-01-02 19:40:00,55.5,52.6,30.08,SSW,211,7.0,11.0,90,0.09,,,0.10,VWS V14.01,2014-01-02 18:40:00,
2014-01-02 19:43:00,55.4,52.5,30.08,South,182,6.0,9.0,90,0.09,,,0.10,VWS V14.01,2014-01-02 18:43:00,
2014-01-02 19:48:00,55.5,52.9,30.08,SSE,165,4.0,9.0,91,0.09,,,0.10,VWS V14.01,2014-01-02 18:48:00,
2014-01-02 19:50:00,55.5,52.9,30.08,SSE,153,4.0,9.0,91,0.09,,,0.10,VWS V14.01,2014-01-02 18:50:00,
2014-01-02 19:53:00,55.5,52.9,30.08,SSE,153,1.0,6.0,91,0.09,,,0.10,VWS V14.01,2014-01-02 18:53:00,
2014-01-02 19:58:00,55.4,52.8,30.08,SSE,153,1.0,6.0,91,0.09,,,0.10,VWS V14.01,2014-01-02 18:58:00,
2014-01-02 20:00:00,55.4,52.8,30.08,SSE,153,1.0,6.0,91,0.09,,,0.10,VWS V14.01,2014-01-02 19:00:00,
2014-01-02 20:03:00,55.4,52.8,30.08,South,169,5.0,9.0,91,0.08,,,0.10,VWS V14.01,2014-01-02 19:03:00,
2014-01-02 20:08:00,55.6,53.3,30.08,South,171,12.0,14.0,92,0.08,,,0.10,VWS V14.01,2014-01-02 19:08:00,
2014-01-02 20:10:00,55.8,53.2,30.08,SSW,207,11.0,14.0,91,0.08,,,0.10,VWS V14.01,2014-01-02 19:10:00,
2014-01-02 20:13:00,55.8,53.2,30.08,SW,219,9.0,12.0,91,0.06,,,0.10,VWS V14.01,2014-01-02 19:13:00,
2014-01-02 20:18:00,55.9,53.3,30.08,South,180,9.0,13.0,91,0.06,,,0.10,VWS V14.01,2014-01-02 19:18:00,
2014-01-02 20:20:00,55.9,53.3,30.08,SSW,196,8.0,13.0,91,0.06,,,0.10,VWS V14.01,2014-01-02 19:20:00,
2014-01-02 20:23:00,55.9,53.3,30.08,SSE,165,4.0,9.0,91,0.03,,,0.10,VWS V14.01,2014-01-02 19:23:00,
2014-01-02 20:28:00,55.9,53.3,30.08,SSW,200,5.0,13.0,91,0.03,,,0.10,VWS V14.01,2014-01-02 19:28:00,
2014-01-02 20:30:00,56.0,53.4,30.08,SSW,197,8.0,13.0,91,0.03,,,0.10,VWS V14.01,2014-01-02 19:30:00,
2014-01-02 20:33:00,56.0,53.4,30.08,SSW,195,5.0,12.0,91,0.00,,,0.10,VWS V14.01,2014-01-02 19:33:00,
2014-01-02 20:38:00,56.0,53.4,30.08,South,191,7.0,15.0,91,0.00,,,0.10,VWS V14.01,2014-01-02 19:38:00,
2014-01-02 20:40:00,56.1,53.5,30.08,South,172,6.0,15.0,91,0.00,,,0.10,VWS V14.01,2014-01-02 19:40:00,
2014-01-02 20:43:00,56.1,53.5,30.08,SSE,164,6.0,10.0,91,0.00,,,0.10,VWS V14.01,2014-01-02 19:43:00,
2014-01-02 20:48:00,56.1,53.5,30.08,South,180,4.0,12.0,91,0.00,,,0.10,VWS V14.01,2014-01-02 19:48:00,
2014-01-02 20:50:00,56.2,53.6,30.08,SW,218,7.0,13.0,91,0.00,,,0.10,VWS V14.01,2014-01-02 19:50:00,
2014-01-02 20:53:00,56.3,53.7,30.07,South,180,7.0,12.0,91,0.00,,,0.10,VWS V14.01,2014-01-02 19:53:00,
2014-01-02 20:58:00,56.4,53.8,30.08,SSE,167,6.0,12.0,91,0.00,,,0.10,VWS V14.01,2014-01-02 19:58:00,
2014-01-02 21:00:00,56.5,53.9,30.08,South,179,7.0,12.0,91,0.00,,,0.10,VWS V14.01,2014-01-02 20:00:00,
2014-01-02 21:03:00,56.5,53.9,30.08,South,173,6.0,10.0,91,0.00,,,0.10,VWS V14.01,2014-01-02 20:03:00,
2014-01-02 21:08:00,56.4,53.8,30.08,SSW,202,7.0,11.0,91,0.00,,,0.10,VWS V14.01,2014-01-02 20:08:00,
2014-01-02 21:10:00,56.7,54.1,30.08,SSW,204,11.0,13.0,91,0.00,,,0.10,VWS V14.01,2014-01-02 20:10:00,
2014-01-02 21:13:00,56.7,54.1,30.08,South,187,8.0,13.0,91,0.00,,,0.10,VWS V14.01,2014-01-02 20:13:00,
2014-01-02 21:18:00,56.8,54.2,30.08,South,185,13.0,14.0,91,0.00,,,0.10,VWS V14.01,2014-01-02 20:18:00,
2014-01-02 21:20:00,56.7,54.1,30.08,South,184,8.0,14.0,91,0.01,,,0.11,VWS V14.01,2014-01-02 20:20:00,
2014-01-02 21:23:00,56.7,54.1,30.08,South,178,11.0,13.0,91,0.01,,,0.11,VWS V14.01,2014-01-02 20:23:00,
2014-01-02 21:28:00,56.6,54.0,30.08,SSE,168,9.0,13.0,91,0.02,,,0.12,VWS V14.01,2014-01-02 20:28:00,
2014-01-02 21:30:00,56.5,53.9,30.08,South,184,5.0,13.0,91,0.02,,,0.12,VWS V14.01,2014-01-02 20:30:00,
2014-01-02 21:33:00,56.5,53.9,30.08,South,177,7.0,10.0,91,0.02,,,0.12,VWS V14.01,2014-01-02 20:33:00,
2014-01-02 21:38:00,56.5,54.2,30.08,SSW,196,6.0,11.0,92,0.02,,,0.12,VWS V14.01,2014-01-02 20:38:00,
2014-01-02 21:40:00,56.5,54.2,30.08,SSE,159,5.0,11.0,92,0.02,,,0.12,VWS V14.01,2014-01-02 20:40:00,
2014-01-02 21:43:00,56.5,54.2,30.08,South,186,3.0,10.0,92,0.02,,,0.12,VWS V14.01,2014-01-02 20:43:00,
2014-01-02 21:48:00,56.4,54.1,30.08,South,184,5.0,10.0,92,0.02,,,0.12,VWS V14.01,2014-01-02 20:48:00,
2014-01-02 21:50:00,56.5,54.2,30.08,South,188,7.0,10.0,92,0.02,,,0.12,VWS V14.01,2014-01-02 20:50:00,
2014-01-02 21:53:00,56.5,54.2,30.08,SSW,193,8.0,9.0,92,0.02,,,0.12,VWS V14.01,2014-01-02 20:53:00,
2014-01-02 21:58:00,56.5,54.2,30.08,South,184,7.0,9.0,92,0.02,,,0.12,VWS V14.01,2014-01-02 20:58:00,
2014-01-02 22:00:00,56.7,54.4,30.07,South,188,7.0,12.0,92,0.02,,,0.12,VWS V14.01,2014-01-02 21:00:00,
2014-01-02 22:03:00,56.7,54.4,30.07,SSW,203,4.0,7.0,92,0.02,,,0.12,VWS V14.01,2014-01-02 21:03:00,
2014-01-02 22:08:00,56.6,54.0,30.08,South,186,5.0,15.0,91,0.02,,,0.12,VWS V14.01,2014-01-02 21:08:00,
2014-01-02 22:10:00,56.7,54.1,30.08,WSW,246,8.0,15.0,91,0.02,,,0.12,VWS V14.01,2014-01-02 21:10:00,
2014-01-02 22:13:00,56.8,53.9,30.08,SW,234,10.0,13.0,90,0.02,,,0.12,VWS V14.01,2014-01-02 21:13:00,
2014-01-02 22:18:00,57.0,54.1,30.08,SW,226,10.0,14.0,90,0.02,,,0.12,VWS V14.01,2014-01-02 21:18:00,
2014-01-02 22:20:00,57.1,53.9,30.08,SW,236,7.0,14.0,89,0.02,,,0.12,VWS V14.01,2014-01-02 21:20:00,
2014-01-02 22:22:00,57.1,53.9,30.08,WSW,246,3.0,11.0,89,0.01,,,0.12,VWS V14.01,2014-01-02 21:22:00,
2014-01-02 22:27:00,57.3,54.1,30.08,WSW,240,6.0,14.0,89,0.01,,,0.12,VWS V14.01,2014-01-02 21:27:00,
2014-01-02 22:30:00,57.2,54.0,30.08,SSW,207,7.0,14.0,89,0.01,,,0.12,VWS V14.01,2014-01-02 21:30:00,
2014-01-02 22:32:00,57.2,54.0,30.08,SSW,212,7.0,11.0,89,0.00,,,0.12,VWS V14.01,2014-01-02 21:32:00,
2014-01-02 22:37:00,57.3,54.1,30.08,SW,229,5.0,12.0,89,0.00,,,0.12,VWS V14.01,2014-01-02 21:37:00,
2014-01-02 22:40:00,57.3,54.1,30.08,SW,219,5.0,12.0,89,0.00,,,0.12,VWS V14.01,2014-01-02 21:40:00,
2014-01-02 22:42:00,57.3,54.1,30.08,SSW,210,7.0,8.0,89,0.00,,,0.12,VWS V14.01,2014-01-02 21:42:00,
2014-01-02 22:47:00,57.3,54.1,30.08,SSW,200,7.0,14.0,89,0.00,,,0.12,VWS V14.01,2014-01-02 21:47:00,
2014-01-02 22:50:00,57.2,54.0,30.08,SW,222,6.0,14.0,89,0.00,,,0.12,VWS V14.01,2014-01-02 21:50:00,
2014-01-02 22:52:00,57.2,54.0,30.08,SSW,213,6.0,15.0,89,0.00,,,0.12,VWS V14.01,2014-01-02 21:52:00,
2014-01-02 22:57:00,57.3,54.1,30.08,SSW,212,6.0,15.0,89,0.00,,,0.12,VWS V14.01,2014-01-02 21:57:00,
2014-01-02 23:00:00,57.3,54.1,30.08,SSW,196,7.0,15.0,89,0.00,,,0.12,VWS V14.01,2014-01-02 22:00:00,
2014-01-02 23:02:00,57.3,54.1,30.08,SSW,209,8.0,8.0,89,0.00,,,0.12,VWS V14.01,2014-01-02 22:02:00,
2014-01-02 23:07:00,57.3,54.1,30.08,SSW,207,7.0,10.0,89,0.02,,,0.14,VWS V14.01,2014-01-02 22:07:00,
2014-01-02 23:10:00,57.1,54.2,30.08,South,186,9.0,15.0,90,0.04,,,0.16,VWS V14.01,2014-01-02 22:10:00,
2014-01-02 23:12:00,57.1,54.2,30.08,SW,232,9.0,11.0,90,0.04,,,0.16,VWS V14.01,2014-01-02 22:12:00,
2014-01-02 23:17:00,56.9,54.0,30.08,WSW,237,8.0,11.0,90,0.05,,,0.17,VWS V14.01,2014-01-02 22:17:00,
2014-01-02 23:20:00,56.9,54.0,30.09,WSW,247,6.0,11.0,90,0.05,,,0.17,VWS V14.01,2014-01-02 22:20:00,
2014-01-02 23:22:00,56.9,54.0,30.08,WSW,242,6.0,11.0,90,0.05,,,0.17,VWS V14.01,2014-01-02 22:22:00,
2014-01-02 23:27:00,57.0,53.8,30.08,WSW,243,4.0,11.0,89,0.05,,,0.17,VWS V14.01,2014-01-02 22:27:00,
2014-01-02 23:30:00,57.0,53.8,30.09,WSW,239,9.0,11.0,89,0.05,,,0.17,VWS V14.01,2014-01-02 22:30:00,
2014-01-02 23:32:00,57.0,53.8,30.09,WSW,245,6.0,10.0,89,0.05,,,0.17,VWS V14.01,2014-01-02 22:32:00,
2014-01-02 23:37:00,57.0,53.5,30.09,West,262,4.0,10.0,88,0.05,,,0.17,VWS V14.01,2014-01-02 22:37:00,
2014-01-02 23:40:00,57.0,53.5,30.09,WSW,257,5.0,10.0,88,0.05,,,0.17,VWS V14.01,2014-01-02 22:40:00,
2014-01-02 23:42:00,57.0,53.5,30.09,WSW,245,3.0,8.0,88,0.05,,,0.17,VWS V14.01,2014-01-02 22:42:00,
2014-01-02 23:47:00,57.0,53.2,30.08,SW,233,9.0,9.0,87,0.05,,,0.17,VWS V14.01,2014-01-02 22:47:00,
2014-01-02 23:50:00,57.2,53.4,30.08,WSW,244,4.0,10.0,87,0.05,,,0.17,VWS V14.01,2014-01-02 22:50:00,
2014-01-02 23:52:00,57.2,53.1,30.09,WSW,246,4.0,8.0,86,0.05,,,0.17,VWS V14.01,2014-01-02 22:52:00,
2014-01-02 23:57:00,57.2,53.1,30.09,SW,224,6.0,8.0,86,0.05,,,0.17,VWS V14.01,2014-01-02 22:57:00,